createdAt,value
2019-01-21T00:00:42.763Z,-0.92
2019-01-21T00:03:14.682Z,-0.68
2019-01-21T00:05:43.821Z,-0.78
2019-01-21T00:08:13.407Z,-0.89
2019-01-21T00:10:43.305Z,-0.71
2019-01-21T00:13:12.815Z,-0.68
2019-01-21T00:15:42.756Z,-0.57
2019-01-21T00:18:12.357Z,-0.95
2019-01-21T00:20:41.936Z,-1.08
2019-01-21T00:23:11.457Z,-1.16
2019-01-21T00:25:40.986Z,-1.22
2019-01-21T00:28:10.454Z,-1.06
2019-01-21T00:30:40.450Z,-1.01
2019-01-21T00:33:09.970Z,-1.10
2019-01-21T00:35:39.520Z,-1.04
2019-01-21T00:38:09.243Z,-1.28
2019-01-21T00:40:38.734Z,-1.00
2019-01-21T00:43:08.418Z,-1.34
2019-01-21T00:45:37.980Z,-1.34
2019-01-21T00:48:07.452Z,-1.47
2019-01-21T00:50:36.960Z,-1.31
2019-01-21T00:53:06.490Z,-1.25
2019-01-21T00:55:35.966Z,-1.29
2019-01-21T00:58:05.537Z,-1.38
2019-01-21T01:00:35.231Z,-1.02
2019-01-21T01:03:06.159Z,-1.07
2019-01-21T01:05:35.690Z,-1.02
2019-01-21T01:08:06.054Z,-1.02
2019-01-21T01:10:35.571Z,-0.75
2019-01-21T01:13:06.856Z,-0.66
2019-01-21T01:15:36.782Z,-0.59
2019-01-21T01:18:06.279Z,-0.47
2019-01-21T01:20:35.785Z,-0.95
2019-01-21T01:23:06.058Z,-0.83
2019-01-21T01:25:35.542Z,-0.70
2019-01-21T01:28:05.244Z,-1.00
2019-01-21T01:30:34.760Z,-1.13
2019-01-21T01:33:04.255Z,-1.37
2019-01-21T01:35:33.954Z,-1.10
2019-01-21T01:38:03.521Z,-1.24
2019-01-21T01:40:33.012Z,-1.00
2019-01-21T01:43:02.520Z,-0.84
2019-01-21T01:45:32.575Z,-0.62
2019-01-21T01:48:02.206Z,-0.87
2019-01-21T01:50:32.448Z,-1.32
2019-01-21T01:53:02.197Z,-1.13
2019-01-21T01:55:31.942Z,-0.69
2019-01-21T01:58:02.289Z,-0.61
2019-01-21T02:00:33.776Z,-0.56
2019-01-21T02:03:05.113Z,-0.58
2019-01-21T02:05:34.608Z,-0.41
2019-01-21T02:08:39.435Z,-0.37
2019-01-21T02:10:56.198Z,-0.37
2019-01-21T02:13:25.921Z,-0.63
2019-01-21T02:15:55.572Z,-0.43
2019-01-21T02:18:25.733Z,-0.26
2019-01-21T02:20:58.240Z,-0.35
2019-01-21T02:23:33.031Z,-0.54
2019-01-21T02:26:03.138Z,-0.83
2019-01-21T02:28:58.191Z,-0.55
2019-01-21T02:32:26.316Z,-0.24
2019-01-21T02:35:12.451Z,-0.24
2019-01-21T02:37:58.337Z,-0.56
2019-01-21T02:40:53.300Z,-0.54
2019-01-21T02:43:33.885Z,-0.42
2019-01-21T02:46:33.431Z,-0.89
2019-01-21T02:49:28.931Z,-1.21
2019-01-21T02:52:11.323Z,-1.16
2019-01-21T02:54:57.552Z,-1.08
2019-01-21T02:57:53.253Z,-1.23
2019-01-21T03:00:33.238Z,-0.93
2019-01-21T03:03:10.133Z,-1.01
2019-01-21T03:05:55.879Z,-1.18
2019-01-21T03:08:38.952Z,-0.99
2019-01-21T03:11:38.973Z,-1.07
2019-01-21T03:14:22.249Z,-0.79
2019-01-21T03:17:29.269Z,-1.25
2019-01-21T03:20:06.504Z,-1.30
2019-01-21T03:23:33.267Z,-1.59
2019-01-21T03:26:28.805Z,-1.65
2019-01-21T03:29:28.191Z,-1.79
2019-01-21T03:32:37.029Z,-1.69
2019-01-21T03:35:13.765Z,-1.83
2019-01-21T03:38:13.333Z,-1.60
2019-01-21T03:40:59.911Z,-1.66
2019-01-21T03:43:42.931Z,-1.99
2019-01-21T03:46:53.293Z,-2.01
2019-01-21T03:49:57.170Z,-2.13
2019-01-21T03:52:49.068Z,-2.27
2019-01-21T03:55:19.796Z,-2.35
2019-01-21T03:58:12.007Z,-2.00
2019-01-21T04:01:07.688Z,-1.74
2019-01-21T04:03:50.581Z,-1.52
2019-01-21T04:06:31.100Z,-1.46
2019-01-21T04:09:17.126Z,-1.58
2019-01-21T04:12:32.026Z,-1.23
2019-01-21T04:15:11.852Z,-1.39
2019-01-21T04:18:05.752Z,-1.48
2019-01-21T04:20:54.958Z,-1.68
2019-01-21T04:23:50.180Z,-1.80
2019-01-21T04:26:53.111Z,-1.99
2019-01-21T04:29:45.754Z,-1.82
2019-01-21T04:32:22.751Z,-2.00
2019-01-21T04:35:32.686Z,-1.93
2019-01-21T04:38:30.689Z,-1.82
2019-01-21T04:41:10.412Z,-2.00
2019-01-21T04:44:01.792Z,-2.02
2019-01-21T04:46:47.432Z,-2.17
2019-01-21T04:49:24.145Z,-2.35
2019-01-21T04:52:09.970Z,-2.20
2019-01-21T04:55:10.490Z,-2.03
2019-01-21T04:58:05.222Z,-2.24
2019-01-21T05:00:57.114Z,-2.25
2019-01-21T05:03:45.381Z,-2.22
2019-01-21T05:06:25.457Z,-2.16
2019-01-21T05:09:17.986Z,-2.24
2019-01-21T05:12:16.184Z,-1.95
2019-01-21T05:15:02.014Z,-1.88
2019-01-21T05:17:59.082Z,-2.01
2019-01-21T05:20:48.182Z,-2.00
2019-01-21T05:23:44.968Z,-2.24
2019-01-21T05:26:25.286Z,-2.49
2019-01-21T05:29:16.053Z,-2.43
2019-01-21T05:32:15.724Z,-2.49
2019-01-21T05:34:49.991Z,-2.47
2019-01-21T05:37:45.160Z,-2.21
2019-01-21T05:40:40.349Z,-2.50
2019-01-21T05:43:29.483Z,-2.51
2019-01-21T05:46:18.254Z,-2.39
2019-01-21T05:49:28.578Z,-2.31
2019-01-21T05:52:20.589Z,-2.49
2019-01-21T05:55:27.428Z,-2.83
2019-01-21T05:58:30.417Z,-2.86
2019-01-21T06:01:42.896Z,-2.87
2019-01-21T06:04:40.791Z,-2.89
2019-01-21T06:07:48.278Z,-2.95
2019-01-21T06:10:37.698Z,-3.01
2019-01-21T06:13:17.560Z,-2.95
2019-01-21T06:15:51.792Z,-2.94
2019-01-21T06:18:35.304Z,-3.27
2019-01-21T06:21:21.501Z,-3.32
2019-01-21T06:24:13.752Z,-3.25
2019-01-21T06:27:17.852Z,-3.09
2019-01-21T06:30:13.910Z,-3.11
2019-01-21T06:33:24.362Z,-2.89
2019-01-21T06:36:13.158Z,-3.08
2019-01-21T06:39:12.738Z,-3.09
2019-01-21T06:42:19.534Z,-3.06
2019-01-21T06:45:11.352Z,-3.03
2019-01-21T06:48:12.224Z,-3.05
2019-01-21T06:51:16.304Z,-2.89
2019-01-21T06:54:08.284Z,-3.12
2019-01-21T06:56:54.404Z,-3.14
2019-01-21T06:59:55.888Z,-3.02
2019-01-21T07:02:45.039Z,-2.89
2019-01-21T07:05:46.297Z,-2.92
2019-01-21T07:09:05.446Z,-3.01
2019-01-21T07:11:57.681Z,-2.73
2019-01-21T07:14:56.321Z,-2.76
2019-01-21T07:17:33.608Z,-2.85
2019-01-21T07:20:43.997Z,-2.50
2019-01-21T07:23:27.231Z,-2.49
2019-01-21T07:26:16.475Z,-2.30
2019-01-21T07:29:14.680Z,-2.32
2019-01-21T07:32:10.026Z,-2.59
2019-01-21T07:35:17.470Z,-3.04
2019-01-21T07:38:09.596Z,-3.06
2019-01-21T07:41:16.519Z,-3.22
2019-01-21T07:44:11.344Z,-2.97
2019-01-21T07:47:17.463Z,-2.90
2019-01-21T07:50:17.173Z,-2.74
2019-01-21T07:53:12.551Z,-2.42
2019-01-21T07:56:04.102Z,-1.46
2019-01-21T07:59:12.885Z,-0.71
2019-01-21T08:01:52.425Z,0.29
2019-01-21T08:04:41.549Z,1.57
2019-01-21T08:07:21.161Z,1.81
2019-01-21T08:10:32.397Z,1.92
2019-01-21T08:13:27.680Z,1.99
2019-01-21T08:16:19.493Z,1.50
2019-01-21T08:19:24.328Z,2.06
2019-01-21T08:22:20.994Z,1.50
2019-01-21T08:25:29.965Z,1.00
2019-01-21T08:28:17.208Z,0.98
2019-01-21T08:31:32.709Z,0.85
2019-01-21T08:34:26.777Z,1.82
2019-01-21T08:37:42.988Z,2.43
2019-01-21T08:40:35.665Z,2.39
2019-01-21T08:43:38.312Z,2.51
2019-01-21T08:46:36.943Z,3.81
2019-01-21T08:49:30.708Z,3.70
2019-01-21T08:52:07.679Z,2.39
2019-01-21T08:54:50.685Z,1.49
2019-01-21T08:58:02.304Z,0.76
2019-01-21T09:00:54.392Z,0.10
2019-01-21T09:03:55.317Z,0.07
2019-01-21T09:06:37.987Z,-0.47
2019-01-21T09:09:20.792Z,-0.45
2019-01-21T09:12:15.269Z,-0.29
2019-01-21T09:15:11.116Z,-0.05
2019-01-21T09:18:19.023Z,0.22
2019-01-21T09:21:20.303Z,0.08
2019-01-21T09:24:02.555Z,0.54
2019-01-21T09:26:54.373Z,0.89
2019-01-21T09:30:13.617Z,0.82
2019-01-21T09:33:22.547Z,0.89
2019-01-21T09:36:11.635Z,1.15
2019-01-21T09:38:54.594Z,2.28
2019-01-21T09:41:34.429Z,2.47
2019-01-21T09:44:14.563Z,1.99
2019-01-21T09:46:46.351Z,2.35
2019-01-21T09:49:14.279Z,2.12
2019-01-21T09:51:47.850Z,2.18
2019-01-21T09:54:17.359Z,2.68
2019-01-21T09:56:49.371Z,2.77
2019-01-21T09:59:20.425Z,2.50
2019-01-21T10:01:55.189Z,2.93
2019-01-21T10:04:37.349Z,2.75
2019-01-21T10:07:26.331Z,2.79
2019-01-21T10:10:15.825Z,2.85
2019-01-21T10:13:21.034Z,2.45
2019-01-21T10:16:17.666Z,2.07
2019-01-21T10:19:14.402Z,2.03
2019-01-21T10:22:03.215Z,1.74
2019-01-21T10:24:52.455Z,1.23
2019-01-21T10:27:38.917Z,1.17
2019-01-21T10:30:25.128Z,1.42
2019-01-21T10:33:19.872Z,1.57
2019-01-21T10:36:02.853Z,1.70
2019-01-21T10:38:57.671Z,1.33
2019-01-21T10:41:31.863Z,1.55
2019-01-21T10:44:36.542Z,1.75
2019-01-21T10:47:19.655Z,1.69
2019-01-21T10:50:14.844Z,1.66
2019-01-21T10:53:03.992Z,1.32
2019-01-21T10:56:04.442Z,1.20
2019-01-21T10:58:47.674Z,1.71
2019-01-21T11:01:34.092Z,1.68
2019-01-21T11:04:35.596Z,2.11
2019-01-21T11:08:02.078Z,2.75
2019-01-21T11:10:48.181Z,2.86
2019-01-21T11:13:39.010Z,2.41
2019-01-21T11:16:16.192Z,2.56
2019-01-21T11:19:10.752Z,2.21
2019-01-21T11:21:44.950Z,2.14
2019-01-21T11:24:57.881Z,2.80
2019-01-21T11:27:32.062Z,3.24
2019-01-21T11:30:06.304Z,3.04
2019-01-21T11:33:02.950Z,2.99
2019-01-21T11:35:57.661Z,3.12
2019-01-21T11:38:46.502Z,3.06
2019-01-21T11:41:32.511Z,3.40
2019-01-21T11:44:21.643Z,3.38
2019-01-21T11:47:01.608Z,4.80
2019-01-21T11:49:47.692Z,5.45
2019-01-21T11:52:24.940Z,5.05
2019-01-21T11:55:10.461Z,5.06
2019-01-21T11:57:53.502Z,4.77
2019-01-21T12:00:50.519Z,4.25
2019-01-21T12:03:44.195Z,5.60
2019-01-21T12:06:14.306Z,8.97
2019-01-21T12:08:54.750Z,10.78
2019-01-21T12:11:37.390Z,10.64
2019-01-21T12:14:14.384Z,10.57
2019-01-21T12:17:03.532Z,11.63
2019-01-21T12:19:55.914Z,12.05
2019-01-21T12:22:39.254Z,13.04
2019-01-21T12:25:28.248Z,14.61
2019-01-21T12:28:16.790Z,13.23
2019-01-21T12:31:22.194Z,11.83
2019-01-21T12:34:04.974Z,10.25
2019-01-21T12:36:39.204Z,8.01
2019-01-21T12:39:13.411Z,6.89
2019-01-21T12:42:07.679Z,6.26
2019-01-21T12:44:41.866Z,5.66
2019-01-21T12:47:37.002Z,5.40
2019-01-21T12:50:30.132Z,4.80
2019-01-21T12:53:25.275Z,3.98
2019-01-21T12:56:14.411Z,3.50
2019-01-21T12:59:03.482Z,3.49
2019-01-21T13:01:43.706Z,3.86
2019-01-21T13:04:39.074Z,3.84
2019-01-21T13:07:21.676Z,3.81
2019-01-21T13:10:15.550Z,3.92
2019-01-21T13:13:07.559Z,3.41
2019-01-21T13:15:53.411Z,3.13
2019-01-21T13:18:50.975Z,3.34
2019-01-21T13:21:49.365Z,3.48
2019-01-21T13:24:28.972Z,3.53
2019-01-21T13:27:18.108Z,3.23
2019-01-21T13:29:51.527Z,3.22
2019-01-21T13:32:43.423Z,2.92
2019-01-21T13:35:29.842Z,3.17
2019-01-21T13:38:10.008Z,3.03
2019-01-21T13:41:06.780Z,3.09
2019-01-21T13:44:00.129Z,3.50
2019-01-21T13:47:11.889Z,3.43
2019-01-21T13:50:04.170Z,3.32
2019-01-21T13:52:56.083Z,3.25
2019-01-21T13:56:03.560Z,2.91
2019-01-21T13:59:07.156Z,2.99
2019-01-21T14:01:43.840Z,2.57
2019-01-21T14:04:55.606Z,2.65
2019-01-21T14:07:45.149Z,2.74
2019-01-21T14:10:31.417Z,2.50
2019-01-21T14:13:26.283Z,2.40
2019-01-21T14:16:08.151Z,2.56
2019-01-21T14:18:42.462Z,2.66
2019-01-21T14:21:28.764Z,2.86
2019-01-21T14:24:11.930Z,3.31
2019-01-21T14:27:12.933Z,3.01
2019-01-21T14:29:49.608Z,2.72
2019-01-21T14:32:32.424Z,2.44
2019-01-21T14:35:18.649Z,2.80
2019-01-21T14:37:58.372Z,2.72
2019-01-21T14:40:49.520Z,2.38
2019-01-21T14:43:44.721Z,2.63
2019-01-21T14:46:22.038Z,2.79
2019-01-21T14:49:13.809Z,2.69
2019-01-21T14:51:53.954Z,2.34
2019-01-21T14:54:28.169Z,2.41
2019-01-21T14:57:02.530Z,2.56
2019-01-21T14:59:49.014Z,2.33
2019-01-21T15:02:50.236Z,2.42
2019-01-21T15:05:41.869Z,2.23
2019-01-21T15:08:16.154Z,2.30
2019-01-21T15:11:12.580Z,2.53
2019-01-21T15:13:50.191Z,2.78
2019-01-21T15:16:33.197Z,3.06
2019-01-21T15:19:10.208Z,2.77
2019-01-21T15:22:14.793Z,2.87
2019-01-21T15:25:21.816Z,2.88
2019-01-21T15:28:10.409Z,2.83
2019-01-21T15:30:56.899Z,3.06
2019-01-21T15:33:49.432Z,2.56
2019-01-21T15:36:35.675Z,2.84
2019-01-21T15:39:15.921Z,3.01
2019-01-21T15:41:59.016Z,3.17
2019-01-21T15:45:02.804Z,3.20
2019-01-21T15:47:47.977Z,3.20
2019-01-21T15:50:40.186Z,3.18
2019-01-21T15:53:17.235Z,3.10
2019-01-21T15:55:56.680Z,3.38
2019-01-21T15:58:42.795Z,3.67
2019-01-21T16:01:22.712Z,3.78
2019-01-21T16:04:11.803Z,3.64
2019-01-21T16:07:13.247Z,3.43
2019-01-21T16:09:50.399Z,3.06
2019-01-21T16:12:30.371Z,3.34
2019-01-21T16:15:13.382Z,3.34
2019-01-21T16:18:15.827Z,3.31
2019-01-21T16:20:55.709Z,3.20
2019-01-21T16:24:00.954Z,2.98
2019-01-21T16:26:35.202Z,3.06
2019-01-21T16:29:33.584Z,3.16
2019-01-21T16:32:03.234Z,3.17
2019-01-21T16:34:43.244Z,2.75
2019-01-21T16:37:23.054Z,2.98
2019-01-21T16:40:32.940Z,2.83
2019-01-21T16:43:02.526Z,3.07
2019-01-21T16:45:31.984Z,2.70
2019-01-21T16:48:01.494Z,2.65
2019-01-21T16:50:31.067Z,2.77
2019-01-21T16:53:00.636Z,2.87
2019-01-21T16:55:30.143Z,3.13
2019-01-21T16:57:59.709Z,3.33
2019-01-21T17:00:29.259Z,2.93
2019-01-21T17:02:58.728Z,2.99
2019-01-21T17:05:28.256Z,3.31
2019-01-21T17:07:58.074Z,3.31
2019-01-21T17:10:27.575Z,3.33
2019-01-21T17:12:57.120Z,3.50
2019-01-21T17:15:27.142Z,3.10
2019-01-21T17:17:56.992Z,2.93
2019-01-21T17:20:26.943Z,3.23
2019-01-21T17:22:56.444Z,3.28
2019-01-21T17:25:25.922Z,3.21
2019-01-21T17:27:55.509Z,3.15
2019-01-21T17:30:25.036Z,2.98
2019-01-21T17:32:54.532Z,3.15
2019-01-21T17:35:24.004Z,3.23
2019-01-21T17:37:53.483Z,3.19
2019-01-21T17:40:22.982Z,3.12
2019-01-21T17:42:52.891Z,3.21
2019-01-21T17:45:22.384Z,3.00
2019-01-21T17:47:51.938Z,2.99
2019-01-21T17:50:21.539Z,2.70
2019-01-21T17:52:51.063Z,2.75
2019-01-21T17:55:20.605Z,2.50
2019-01-21T17:57:50.143Z,2.52
2019-01-21T18:00:22.318Z,2.64
2019-01-21T18:02:51.820Z,2.68
2019-01-21T18:05:21.659Z,2.56
2019-01-21T18:07:51.142Z,2.40
2019-01-21T18:10:20.696Z,2.45
2019-01-21T18:12:50.661Z,2.34
2019-01-21T18:15:20.133Z,2.34
2019-01-21T18:17:49.624Z,2.28
2019-01-21T18:20:22.271Z,2.36
2019-01-21T18:22:51.752Z,2.14
2019-01-21T18:25:21.232Z,2.12
2019-01-21T18:27:50.833Z,2.32
2019-01-21T18:30:23.545Z,2.39
2019-01-21T18:32:53.456Z,2.23
2019-01-21T18:35:23.546Z,2.13
2019-01-21T18:37:54.003Z,2.17
2019-01-21T18:40:23.744Z,2.12
2019-01-21T18:42:53.281Z,2.03
2019-01-21T18:45:26.204Z,1.92
2019-01-21T18:47:55.775Z,1.99
2019-01-21T18:50:25.491Z,2.26
2019-01-21T18:52:55.146Z,2.35
2019-01-21T18:55:24.728Z,2.16
2019-01-21T18:57:56.020Z,2.35
2019-01-21T19:00:26.577Z,2.49
2019-01-21T19:02:56.125Z,2.43
2019-01-21T19:05:25.797Z,2.52
2019-01-21T19:07:55.279Z,2.58
2019-01-21T19:10:24.771Z,2.71
2019-01-21T19:12:54.721Z,2.54
2019-01-21T19:15:28.729Z,2.53
2019-01-21T19:17:58.331Z,2.42
2019-01-21T19:20:27.938Z,2.23
2019-01-21T19:22:57.443Z,2.00
2019-01-21T19:25:26.928Z,2.07
2019-01-21T19:27:56.669Z,2.14
2019-01-21T19:30:28.359Z,2.09
2019-01-21T19:32:57.858Z,2.19
2019-01-21T19:35:34.289Z,2.25
2019-01-21T19:38:03.851Z,2.39
2019-01-21T19:40:33.535Z,2.42
2019-01-21T19:43:05.080Z,2.28
2019-01-21T19:45:34.750Z,2.36
2019-01-21T19:48:04.417Z,2.37
2019-01-21T19:50:34.252Z,2.42
2019-01-21T19:53:08.028Z,2.54
2019-01-21T19:55:41.010Z,2.63
2019-01-21T19:58:10.952Z,2.50
2019-01-21T20:00:41.089Z,2.66
2019-01-21T20:03:10.882Z,2.41
2019-01-21T20:05:40.367Z,2.20
2019-01-21T20:08:10.159Z,2.17
2019-01-21T20:10:39.714Z,2.08
2019-01-21T20:13:09.209Z,2.08
2019-01-21T20:15:38.799Z,2.03
2019-01-21T20:18:09.899Z,2.18
2019-01-21T20:20:41.246Z,2.39
2019-01-21T20:23:10.763Z,2.50
2019-01-21T20:25:40.448Z,2.55
2019-01-21T20:28:10.039Z,2.61
2019-01-21T20:30:39.517Z,2.70
2019-01-21T20:33:09.036Z,2.64
2019-01-21T20:35:38.586Z,2.77
2019-01-21T20:38:08.393Z,2.81
2019-01-21T20:40:38.475Z,2.90
2019-01-21T20:43:08.005Z,2.84
2019-01-21T20:45:37.786Z,2.73
2019-01-21T20:48:07.378Z,2.65
2019-01-21T20:50:36.927Z,2.56
2019-01-21T20:53:06.612Z,2.51
2019-01-21T20:55:36.119Z,2.69
2019-01-21T20:58:06.598Z,2.52
2019-01-21T21:00:36.195Z,2.76
2019-01-21T21:03:05.880Z,2.82
2019-01-21T21:05:35.503Z,2.78
2019-01-21T21:08:05.123Z,2.83
2019-01-21T21:10:34.984Z,2.87
2019-01-21T21:13:04.570Z,2.85
2019-01-21T21:15:34.654Z,2.93
2019-01-21T21:18:04.391Z,2.84
2019-01-21T21:20:33.874Z,2.94
2019-01-21T21:23:03.413Z,2.89
2019-01-21T21:25:32.906Z,2.66
2019-01-21T21:28:02.394Z,2.63
2019-01-21T21:30:32.717Z,2.50
2019-01-21T21:33:02.662Z,2.52
2019-01-21T21:35:32.320Z,2.62
2019-01-21T21:38:01.864Z,2.70
2019-01-21T21:40:31.433Z,2.73
2019-01-21T21:43:00.911Z,2.71
2019-01-21T21:45:30.369Z,2.66
2019-01-21T21:48:01.258Z,2.71
2019-01-21T21:50:33.640Z,2.68
2019-01-21T21:53:03.270Z,2.77
2019-01-21T21:55:33.885Z,2.91
2019-01-21T21:58:03.748Z,2.97
2019-01-21T22:00:33.370Z,3.09
2019-01-21T22:03:03.336Z,3.12
2019-01-21T22:05:33.237Z,3.02
2019-01-21T22:08:02.713Z,3.01
2019-01-21T22:10:33.372Z,3.00
2019-01-21T22:13:02.959Z,2.98
2019-01-21T22:15:32.845Z,2.94
2019-01-21T22:18:03.285Z,2.85
2019-01-21T22:20:32.769Z,2.94
2019-01-21T22:23:03.119Z,2.95
2019-01-21T22:25:32.698Z,2.98
2019-01-21T22:28:02.241Z,3.09
2019-01-21T22:30:31.872Z,2.93
2019-01-21T22:33:01.416Z,2.87
2019-01-21T22:35:31.355Z,2.88
2019-01-21T22:38:00.847Z,2.94
2019-01-21T22:40:30.797Z,3.00
2019-01-21T22:43:00.249Z,2.95
2019-01-21T22:45:29.761Z,3.22
2019-01-21T22:47:59.851Z,3.18
2019-01-21T22:50:29.319Z,3.07
2019-01-21T22:52:58.899Z,3.00
2019-01-21T22:55:28.401Z,3.01
2019-01-21T22:57:57.882Z,3.13
2019-01-21T23:00:34.181Z,3.12
2019-01-21T23:03:03.940Z,2.98
2019-01-21T23:05:33.396Z,3.01
2019-01-21T23:08:02.996Z,3.00
2019-01-21T23:10:33.953Z,2.93
2019-01-21T23:13:03.424Z,2.85
2019-01-21T23:15:32.958Z,2.81
2019-01-21T23:18:07.590Z,2.44
2019-01-21T23:20:37.533Z,2.49
2019-01-21T23:23:07.696Z,2.72
2019-01-21T23:25:38.379Z,2.73
2019-01-21T23:28:07.908Z,2.74
2019-01-21T23:30:37.424Z,2.68
2019-01-21T23:33:07.018Z,2.72
2019-01-21T23:35:37.009Z,2.71
2019-01-21T23:38:06.543Z,2.46
2019-01-21T23:40:36.057Z,2.64
2019-01-21T23:43:05.614Z,2.83
2019-01-21T23:45:35.367Z,2.79
2019-01-21T23:48:04.917Z,2.82
2019-01-21T23:50:34.404Z,2.47
2019-01-21T23:53:04.094Z,2.48
2019-01-21T23:55:33.553Z,2.62
2019-01-21T23:58:03.084Z,2.77
